Terminal Aerodrome Forecast
Issued by NWS Cleveland, OH

Home | Current Version | Previous Version | Graphics & Text | Print | Product List | Glossary On
Versions: 1 2 3 4 5 6 7 8 9 10 11 12 13 14
000
FTUS41 KCLE 221500 AAA
TAFMFD
TAF AMD
KMFD 221557Z 2216/2312 30012G18KT P6SM SCT060
     FM222000 31015G25KT P6SM BKN025
     FM230100 31010KT P6SM BKN030=

USA.gov is the U.S. government's official web portal to all federal, state and local government web resources and services.